Time;durP1;ratioP1;P1;durP2;ratioP2;P2;SDS_P1;SDS_P2;PMS_P1;PMS_P2;Temp;Humidity;BMP_temperature;BMP_pressure;BME280_temperature;BME280_humidity;BME280_pressure;Samples;Min_cycle;Max_cycle;Signal;HPM_P1;HPM_P2
2022/12/17 15:34:10;;;;;;;99.73;47.37;;;;;;;-2.05;100.00;102591.25;5287461;28;20446;-74
2022/12/17 15:36:41;;;;;;;114.80;60.73;;;;;;;-2.08;100.00;102593.78;5278732;28;20332;-71
2022/12/17 15:39:13;;;;;;;106.77;54.90;;;;;;;-2.01;100.00;102593.06;5276101;28;20282;-73
2022/12/17 15:44:34;;;;;;;140.53;67.27;;;;;;;-2.16;100.00;102592.75;5280002;28;20033;-68
2022/12/17 15:47:05;;;;;;;98.73;53.47;;;;;;;-2.63;100.00;102583.97;5274363;28;20602;-72
2022/12/17 15:49:36;;;;;;;105.20;52.13;;;;;;;-2.98;100.00;102593.41;5272585;28;20097;-71
2022/12/17 15:52:08;;;;;;;105.70;52.40;;;;;;;-3.02;100.00;102586.50;5273050;28;20017;-71
2022/12/17 15:54:42;;;;;;;100.30;51.33;;;;;;;-3.13;100.00;102596.47;5273209;28;20104;-71
2022/12/17 15:57:13;;;;;;;114.53;58.15;;;;;;;-3.18;100.00;102600.59;5271920;28;20020;-71
2022/12/17 15:59:44;;;;;;;113.00;58.07;;;;;;;-3.25;100.00;102594.44;5273059;28;20107;-79
2022/12/17 16:02:16;;;;;;;115.70;56.57;;;;;;;-3.17;100.00;102598.06;5274256;28;20115;-73
2022/12/17 16:04:48;;;;;;;129.27;62.10;;;;;;;-3.01;100.00;102618.09;5274945;28;20028;-74
2022/12/17 16:07:19;;;;;;;114.00;54.90;;;;;;;-3.02;100.00;102614.69;5274576;28;20356;-75
2022/12/17 16:09:51;;;;;;;118.53;58.63;;;;;;;-3.07;100.00;102619.69;5274691;28;20025;-72
2022/12/17 16:12:22;;;;;;;108.20;55.13;;;;;;;-2.83;100.00;102617.72;5274149;28;20028;-78
2022/12/17 16:14:53;;;;;;;93.23;48.20;;;;;;;-2.65;100.00;102598.47;5274792;28;20077;-74
2022/12/17 16:17:28;;;;;;;98.03;49.50;;;;;;;-2.49;100.00;102598.00;5275435;28;20091;-76
2022/12/17 16:20:00;;;;;;;103.00;51.37;;;;;;;-2.54;100.00;102568.81;5273854;28;20410;-72
2022/12/17 16:22:31;;;;;;;98.87;51.50;;;;;;;-2.20;100.00;102605.50;5274994;28;20320;-73
2022/12/17 16:25:03;;;;;;;101.70;51.30;;;;;;;-2.46;100.00;102604.91;5274223;28;20116;-73
2022/12/17 16:27:35;;;;;;;101.47;52.73;;;;;;;-2.54;100.00;102604.72;5274390;28;20096;-71
2022/12/17 16:30:07;;;;;;;96.77;52.40;;;;;;;-2.70;100.00;102614.63;5273840;28;20825;-71
2022/12/17 16:32:38;;;;;;;99.63;52.13;;;;;;;-2.92;100.00;102608.97;5281136;28;20035;-74
2022/12/17 16:35:09;;;;;;;107.23;52.63;;;;;;;-2.81;100.00;102603.25;5272052;28;20031;-73
2022/12/17 16:37:40;;;;;;;102.90;51.83;;;;;;;-2.90;100.00;102608.13;5273920;28;20052;-72
2022/12/17 16:40:12;;;;;;;102.07;54.00;;;;;;;-2.96;100.00;102612.28;5275834;28;20037;-70
2022/12/17 16:42:43;;;;;;;107.87;53.40;;;;;;;-3.14;100.00;102614.38;5275542;28;20483;-70
2022/12/17 16:45:14;;;;;;;107.03;55.40;;;;;;;-2.96;100.00;102617.41;5259779;28;20032;-69
2022/12/17 16:47:46;;;;;;;116.90;54.33;;;;;;;-3.17;100.00;102616.00;5259572;28;20028;-71
2022/12/17 16:50:17;;;;;;;109.47;52.37;;;;;;;-3.26;100.00;102613.19;5259348;28;20031;-72
2022/12/17 16:52:48;;;;;;;114.93;56.03;;;;;;;-3.33;100.00;102611.28;5260392;28;20060;-75
2022/12/17 16:55:20;;;;;;;106.77;51.90;;;;;;;-3.14;100.00;102612.66;5269937;28;20059;-74
2022/12/17 16:57:51;;;;;;;108.97;51.27;;;;;;;-2.88;100.00;102615.00;5259481;28;20475;-72
2022/12/17 17:00:22;;;;;;;102.37;50.70;;;;;;;-2.79;100.00;102627.19;5259810;28;20108;-72
2022/12/17 17:02:54;;;;;;;89.73;44.07;;;;;;;-2.79;100.00;102629.75;5257393;28;20021;-72
2022/12/17 17:05:25;;;;;;;104.80;53.27;;;;;;;-3.18;100.00;102618.53;5257502;28;20074;-72
2022/12/17 17:07:56;;;;;;;106.63;52.43;;;;;;;-3.12;100.00;102607.56;5258966;28;20107;-72
2022/12/17 17:10:28;;;;;;;86.70;45.87;;;;;;;-3.00;100.00;102619.84;5258280;28;20023;-71
2022/12/17 17:13:00;;;;;;;78.13;40.70;;;;;;;-2.86;100.00;102621.06;5263588;28;20041;-71
2022/12/17 17:15:31;;;;;;;80.93;40.23;;;;;;;-2.75;100.00;102616.19;5258210;28;20329;-73
2022/12/17 17:18:03;;;;;;;87.13;47.77;;;;;;;-2.93;100.00;102617.47;5257373;28;20534;-72
2022/12/17 17:20:34;;;;;;;92.53;45.87;;;;;;;-2.56;100.00;102629.47;5258434;28;20025;-72
2022/12/17 17:23:05;;;;;;;88.67;44.17;;;;;;;-2.51;100.00;102633.00;5261841;28;20017;-73
2022/12/17 17:25:36;;;;;;;92.03;43.80;;;;;;;-2.48;100.00;102620.25;5270295;28;20031;-72
2022/12/17 17:28:08;;;;;;;90.93;46.07;;;;;;;-2.30;100.00;102639.47;5263244;28;20757;-73
2022/12/17 17:30:39;;;;;;;87.67;44.60;;;;;;;-2.29;100.00;102630.97;5262622;28;20419;-75
2022/12/17 17:33:10;;;;;;;96.60;49.33;;;;;;;-2.27;100.00;102631.84;5272162;28;20098;-76
2022/12/17 17:35:41;;;;;;;98.23;49.83;;;;;;;-2.21;100.00;102632.00;5260184;28;20038;-74
2022/12/17 17:38:13;;;;;;;109.50;51.17;;;;;;;-2.28;100.00;102642.97;5268765;28;20040;-76
2022/12/17 17:40:44;;;;;;;101.57;50.50;;;;;;;-2.21;100.00;102643.97;5273382;28;20025;-72
2022/12/17 17:43:15;;;;;;;95.27;49.17;;;;;;;-2.38;100.00;102641.00;5263702;28;20024;-71
2022/12/17 17:45:47;;;;;;;94.43;48.03;;;;;;;-2.50;100.00;102642.47;5264471;28;20074;-74
2022/12/17 17:48:18;;;;;;;99.87;48.00;;;;;;;-2.45;100.00;102627.16;5257553;28;20029;-83
2022/12/17 17:50:57;;;;;;;89.30;45.97;;;;;;;-2.41;100.00;102644.38;5255303;28;20459;-75
2022/12/17 17:53:29;;;;;;;95.83;45.83;;;;;;;-2.27;100.00;102652.38;5261860;28;20081;-74
2022/12/17 17:56:05;;;;;;;98.83;48.67;;;;;;;-2.22;100.00;102645.69;5256198;28;20805;-72
2022/12/17 17:58:37;;;;;;;102.10;48.77;;;;;;;-2.21;100.00;102643.97;5244942;28;20151;-72
2022/12/17 18:01:15;;;;;;;96.67;48.73;;;;;;;-2.26;100.00;102638.72;5260664;28;20385;-73
2022/12/17 18:03:46;;;;;;;98.80;48.90;;;;;;;-2.41;100.00;102639.25;5251357;28;20043;-73
2022/12/17 18:06:18;;;;;;;95.97;49.13;;;;;;;-2.39;100.00;102645.25;5246522;28;20288;-73
2022/12/17 18:08:49;;;;;;;102.73;50.27;;;;;;;-2.35;100.00;102641.06;5247425;28;20033;-72
2022/12/17 18:11:21;;;;;;;109.93;55.27;;;;;;;-2.85;100.00;102640.75;5248213;28;20988;-73
2022/12/17 18:13:55;;;;;;;111.23;54.20;;;;;;;-2.85;100.00;102630.50;5246908;28;20119;-72
2022/12/17 18:16:34;;;;;;;112.97;55.55;;;;;;;-3.21;100.00;102642.38;5246828;28;20029;-72
2022/12/17 18:19:17;;;;;;;121.37;55.97;;;;;;;-3.10;100.00;102645.25;5246558;28;20041;-73
2022/12/17 18:21:48;;;;;;;116.63;56.30;;;;;;;-3.28;100.00;102651.59;5247322;28;20295;-73
2022/12/17 18:24:21;;;;;;;105.60;56.03;;;;;;;-3.06;100.00;102646.19;5245893;28;20291;-73
2022/12/17 18:26:53;;;;;;;103.23;47.77;;;;;;;-2.99;100.00;102653.22;5247279;28;20467;-75
2022/12/17 18:29:27;;;;;;;96.77;46.97;;;;;;;-3.12;100.00;102656.25;5246984;28;20288;-73
2022/12/17 18:31:58;;;;;;;98.55;48.28;;;;;;;-3.17;100.00;102648.47;5246987;28;20041;-72
2022/12/17 18:34:30;;;;;;;91.63;45.73;;;;;;;-2.90;100.00;102647.47;5246671;28;20150;-73
2022/12/17 18:37:01;;;;;;;115.97;62.90;;;;;;;-3.33;100.00;102647.16;5247243;28;20029;-72
2022/12/17 18:39:32;;;;;;;107.47;55.63;;;;;;;-3.68;100.00;102648.78;5247935;28;20021;-74
2022/12/17 18:44:54;;;;;;;96.70;47.23;;;;;;;-3.80;100.00;102651.84;5246560;28;20091;-76
2022/12/17 18:47:25;;;;;;;94.47;47.53;;;;;;;-3.65;100.00;102645.44;5245512;28;20390;-72
2022/12/17 18:49:57;;;;;;;100.33;48.63;;;;;;;-3.77;100.00;102641.69;5246451;28;20029;-72
2022/12/17 18:52:28;;;;;;;108.23;55.00;;;;;;;-3.43;100.00;102636.69;5246463;28;20032;-73
2022/12/17 18:54:59;;;;;;;90.03;46.30;;;;;;;-3.59;100.00;102653.28;5245476;28;20037;-74
2022/12/17 18:57:31;;;;;;;86.13;43.13;;;;;;;-3.26;100.00;102655.91;5244899;28;20033;-74
2022/12/17 19:00:03;;;;;;;91.60;46.37;;;;;;;-3.42;100.00;102648.66;5245821;28;20025;-71
2022/12/17 19:02:34;;;;;;;91.17;43.33;;;;;;;-3.41;100.00;102662.34;5244826;28;20048;-74
2022/12/17 19:05:06;;;;;;;88.50;47.53;;;;;;;-3.63;100.00;102659.16;5245680;28;20303;-72
2022/12/17 19:07:37;;;;;;;105.47;53.27;;;;;;;-3.79;100.00;102657.84;5246176;28;20017;-71
2022/12/17 19:10:09;;;;;;;99.77;47.53;;;;;;;-3.96;100.00;102665.88;5244977;28;20128;-74
2022/12/17 19:12:40;;;;;;;91.97;46.37;;;;;;;-4.16;100.00;102665.25;5246579;28;20040;-74
2022/12/17 19:15:11;;;;;;;112.83;49.03;;;;;;;-4.32;100.00;102671.59;5246635;28;20029;-71
2022/12/17 19:17:43;;;;;;;95.20;47.87;;;;;;;-3.99;100.00;102670.91;5248175;28;20037;-74
2022/12/17 19:20:14;;;;;;;98.00;48.13;;;;;;;-4.13;100.00;102673.03;5245132;28;20032;-71
2022/12/17 19:22:45;;;;;;;92.53;49.73;;;;;;;-4.27;100.00;102676.03;5246206;28;20059;-71
2022/12/17 19:25:17;;;;;;;93.13;49.50;;;;;;;-4.21;100.00;102680.50;5247152;28;20036;-72
2022/12/17 19:27:48;;;;;;;152.87;84.97;;;;;;;-4.11;100.00;102684.19;5247250;28;20029;-75
2022/12/17 19:30:19;;;;;;;218.30;124.20;;;;;;;-4.20;100.00;102687.34;5246731;28;20039;-74
2022/12/17 19:32:50;;;;;;;108.87;56.03;;;;;;;-3.99;100.00;102701.63;5245560;28;20140;-71
2022/12/17 19:35:22;;;;;;;117.07;59.77;;;;;;;-3.93;100.00;102695.84;5243937;28;20033;-75
2022/12/17 19:37:53;;;;;;;108.73;58.83;;;;;;;-3.72;100.00;102685.38;5247448;28;20029;-74
2022/12/17 19:40:24;;;;;;;99.43;49.23;;;;;;;-3.56;100.00;102693.53;5246889;28;20028;-73
2022/12/17 19:42:56;;;;;;;108.13;56.67;;;;;;;-3.50;100.00;102691.13;5246536;28;20121;-73
2022/12/17 19:45:27;;;;;;;100.50;52.07;;;;;;;-3.36;100.00;102682.97;5246249;28;20029;-73
2022/12/17 19:47:58;;;;;;;125.00;64.83;;;;;;;-3.35;100.00;102685.56;5246511;28;20042;-74
2022/12/17 19:50:30;;;;;;;105.00;53.07;;;;;;;-3.47;100.00;102675.84;5245314;28;20041;-72
2022/12/17 19:53:01;;;;;;;105.67;53.90;;;;;;;-3.44;100.00;102686.16;5245661;28;20051;-73
2022/12/17 19:55:32;;;;;;;96.43;53.73;;;;;;;-3.65;100.00;102682.16;5247191;28;20091;-71
2022/12/17 19:58:04;;;;;;;97.87;51.97;;;;;;;-3.86;100.00;102687.53;5245951;28;20020;-73
2022/12/17 20:00:35;;;;;;;128.37;64.37;;;;;;;-3.92;100.00;102687.31;5245561;28;20087;-71
2022/12/17 20:03:06;;;;;;;98.73;50.77;;;;;;;-4.01;100.00;102690.47;5245224;28;20056;-72
2022/12/17 20:05:41;;;;;;;94.03;49.47;;;;;;;-4.04;100.00;102685.25;5245325;28;20055;-73
2022/12/17 20:08:13;;;;;;;98.57;48.67;;;;;;;-4.02;100.00;102691.28;5246227;28;20036;-72
2022/12/17 20:10:44;;;;;;;107.83;53.17;;;;;;;-4.17;100.00;102696.81;5245528;28;20771;-74
2022/12/17 20:13:15;;;;;;;103.33;50.57;;;;;;;-3.98;100.00;102703.38;5244994;28;20059;-73
2022/12/17 20:15:46;;;;;;;86.03;44.83;;;;;;;-4.03;100.00;102710.00;5247294;28;20025;-73
2022/12/17 20:18:18;;;;;;;88.43;46.93;;;;;;;-4.06;100.00;102715.03;5246472;28;20039;-72
2022/12/17 20:20:49;;;;;;;96.83;44.93;;;;;;;-4.37;100.00;102699.59;5248922;28;20052;-70
2022/12/17 20:23:20;;;;;;;97.43;47.83;;;;;;;-4.23;100.00;102723.06;5248266;28;20071;-71
2022/12/17 20:26:04;;;;;;;88.77;45.87;;;;;;;-4.28;100.00;102704.13;5248582;28;20048;-71
2022/12/17 20:28:36;;;;;;;89.27;45.47;;;;;;;-3.87;100.00;102721.63;5247879;28;20063;-73
2022/12/17 20:31:07;;;;;;;90.27;46.43;;;;;;;-3.76;100.00;102719.41;5249983;28;20299;-73
2022/12/17 20:33:39;;;;;;;77.83;43.07;;;;;;;-3.80;100.00;102707.31;5248152;28;20049;-79
2022/12/17 20:36:19;;;;;;;89.43;48.70;;;;;;;-3.90;100.00;102712.16;5247740;28;20037;-73
2022/12/17 20:38:50;;;;;;;81.20;45.57;;;;;;;-4.21;100.00;102705.19;5247366;28;20048;-74
2022/12/17 20:41:25;;;;;;;89.37;49.00;;;;;;;-4.27;100.00;102695.63;5249100;28;20705;-74
2022/12/17 20:43:56;;;;;;;85.45;46.38;;;;;;;-4.30;100.00;102695.53;5246805;28;20452;-73
2022/12/17 20:46:28;;;;;;;92.97;46.30;;;;;;;-4.25;100.00;102686.31;5252166;28;20025;-72
2022/12/17 20:49:02;;;;;;;84.07;42.60;;;;;;;-4.19;100.00;102696.72;5255014;28;20067;-74
2022/12/17 20:51:34;;;;;;;88.15;43.33;;;;;;;-4.30;100.00;102690.41;5257508;28;20021;-77
2022/12/17 20:54:07;;;;;;;77.53;42.57;;;;;;;-4.06;100.00;102705.69;5256739;28;20040;-80
2022/12/17 20:56:39;;;;;;;77.37;40.23;;;;;;;-4.35;100.00;102697.06;5256027;28;20028;-73
2022/12/17 20:59:16;;;;;;;81.40;41.47;;;;;;;-4.38;100.00;102685.91;5256803;28;20279;-72
2022/12/17 21:01:48;;;;;;;75.40;39.13;;;;;;;-4.03;100.00;102694.66;5257107;28;20291;-74
2022/12/17 21:04:19;;;;;;;71.47;38.43;;;;;;;-4.23;100.00;102694.03;5255751;28;20339;-74
2022/12/17 21:06:51;;;;;;;69.80;37.67;;;;;;;-3.78;100.00;102700.53;5288958;28;20047;-73
2022/12/17 21:09:24;;;;;;;76.60;40.23;;;;;;;-3.67;100.00;102699.19;5256956;28;20032;-74
2022/12/17 21:11:55;;;;;;;75.63;41.43;;;;;;;-3.83;100.00;102697.84;5257009;28;20024;-73
2022/12/17 21:14:26;;;;;;;74.93;40.07;;;;;;;-3.80;100.00;102702.19;5256148;28;20284;-73
2022/12/17 21:16:58;;;;;;;83.43;42.17;;;;;;;-4.22;100.00;102699.19;5255525;28;20513;-74
2022/12/17 21:19:29;;;;;;;82.93;42.17;;;;;;;-4.37;100.00;102704.69;5255944;28;20051;-73
2022/12/17 21:22:00;;;;;;;87.63;44.53;;;;;;;-4.47;100.00;102707.78;5245950;28;20032;-72
2022/12/17 21:24:32;;;;;;;89.20;44.67;;;;;;;-4.56;100.00;102708.34;5249100;28;20395;-74
2022/12/17 21:27:03;;;;;;;86.50;45.27;;;;;;;-4.64;100.00;102706.38;5247230;28;20550;-74
2022/12/17 21:29:34;;;;;;;92.43;46.80;;;;;;;-4.62;100.00;102714.97;5248523;28;20021;-74
2022/12/17 21:32:06;;;;;;;78.07;39.77;;;;;;;-4.48;100.00;102712.00;5248552;28;20061;-74
2022/12/17 21:34:38;;;;;;;85.97;45.40;;;;;;;-4.49;100.00;102715.41;5246753;28;20052;-76
2022/12/17 21:37:10;;;;;;;77.07;41.70;;;;;;;-4.45;100.00;102712.09;5247390;28;20033;-77
2022/12/17 21:39:41;;;;;;;79.43;41.17;;;;;;;-4.46;100.00;102712.94;5248541;28;20472;-75
2022/12/17 21:45:02;;;;;;;82.53;46.73;;;;;;;-4.67;100.00;102713.06;5247730;28;20045;-73
2022/12/17 21:47:34;;;;;;;88.40;43.40;;;;;;;-4.62;100.00;102717.53;5247911;28;20275;-75
2022/12/17 21:50:05;;;;;;;74.57;39.33;;;;;;;-4.69;100.00;102728.38;5247677;28;20021;-73
2022/12/17 21:52:36;;;;;;;85.20;46.30;;;;;;;-4.63;100.00;102728.59;5256317;28;20029;-74
2022/12/17 21:55:08;;;;;;;74.17;41.70;;;;;;;-4.70;100.00;102721.53;5255880;28;20043;-78
2022/12/17 21:57:39;;;;;;;74.07;39.00;;;;;;;-4.76;100.00;102724.72;5254400;28;20033;-78
2022/12/17 22:00:11;;;;;;;79.83;42.93;;;;;;;-4.69;100.00;102733.47;5255826;28;20033;-75
2022/12/17 22:02:42;;;;;;;80.77;46.50;;;;;;;-4.61;100.00;102729.50;5255871;28;20040;-77
2022/12/17 22:05:13;;;;;;;72.83;41.70;;;;;;;-4.48;100.00;102732.47;5255428;28;20021;-74
2022/12/17 22:07:45;;;;;;;78.97;41.83;;;;;;;-4.27;100.00;102734.00;5256127;28;20081;-74
2022/12/17 22:10:17;;;;;;;71.63;41.87;;;;;;;-4.47;100.00;102730.78;5256058;28;20029;-75
2022/12/17 22:15:39;;;;;;;71.67;38.97;;;;;;;-4.68;100.00;102737.78;5256513;28;20029;-71
2022/12/17 22:18:10;;;;;;;71.43;38.03;;;;;;;-4.67;100.00;102747.19;5255213;28;20284;-74
2022/12/17 22:20:41;;;;;;;74.03;40.17;;;;;;;-4.62;100.00;102750.78;5255029;28;20021;-74
2022/12/17 22:23:15;;;;;;;72.33;38.20;;;;;;;-4.68;100.00;102752.25;5256047;28;20032;-75
2022/12/17 22:25:46;;;;;;;74.05;40.75;;;;;;;-4.69;100.00;102753.06;5255523;28;20117;-72
2022/12/17 22:28:18;;;;;;;72.60;40.27;;;;;;;-4.54;100.00;102751.03;5253565;28;20111;-73
2022/12/17 22:33:39;;;;;;;76.63;43.20;;;;;;;-4.52;100.00;102753.66;5248085;28;20045;-74
2022/12/17 22:36:10;;;;;;;68.13;37.87;;;;;;;-4.37;100.00;102751.63;5255362;28;20279;-74
2022/12/17 22:38:41;;;;;;;69.33;38.37;;;;;;;-4.57;100.00;102725.34;5255320;28;20052;-74
2022/12/17 22:44:03;;;;;;;58.67;32.67;;;;;;;-4.17;100.00;102748.00;5255638;28;20033;-74
2022/12/17 22:46:34;;;;;;;63.93;34.87;;;;;;;-4.04;100.00;102744.13;5255230;28;20267;-73
2022/12/17 22:49:06;;;;;;;61.80;35.70;;;;;;;-4.18;100.00;102736.88;5248671;28;20487;-72
2022/12/17 22:51:39;;;;;;;61.27;35.23;;;;;;;-4.23;100.00;102742.66;5252353;28;20435;-75
2022/12/17 22:54:12;;;;;;;54.63;32.67;;;;;;;-4.34;100.00;102735.50;5254434;28;20315;-75
2022/12/17 22:56:43;;;;;;;58.37;34.93;;;;;;;-4.47;100.00;102741.91;5254269;28;20276;-72
2022/12/17 22:59:16;;;;;;;62.47;35.27;;;;;;;-4.51;100.00;102745.16;5255216;28;20302;-72
2022/12/17 23:01:48;;;;;;;57.33;34.50;;;;;;;-4.76;100.00;102741.75;5254161;28;20048;-74
2022/12/17 23:04:19;;;;;;;61.53;34.07;;;;;;;-4.86;100.00;102741.44;5254065;28;20271;-72
2022/12/17 23:06:50;;;;;;;62.03;35.10;;;;;;;-4.89;100.00;102741.34;5254456;28;20049;-73
2022/12/17 23:09:22;;;;;;;61.07;33.17;;;;;;;-4.55;100.00;102745.88;5254684;28;20107;-74
2022/12/17 23:11:54;;;;;;;61.27;35.50;;;;;;;-4.44;100.00;102748.81;5266162;28;20013;-74
2022/12/17 23:14:25;;;;;;;62.67;34.10;;;;;;;-4.28;100.00;102739.94;5287117;28;20275;-72
2022/12/17 23:16:56;;;;;;;61.33;34.63;;;;;;;-4.44;100.00;102724.09;5254908;28;20013;-72
2022/12/17 23:19:27;;;;;;;60.33;37.23;;;;;;;-4.76;100.00;102711.06;5260661;28;20028;-71
2022/12/17 23:21:59;;;;;;;65.00;39.80;;;;;;;-4.99;100.00;102719.69;5256956;28;20109;-71
2022/12/17 23:24:30;;;;;;;69.47;38.27;;;;;;;-5.20;100.00;102708.69;5261985;28;20024;-73
2022/12/17 23:27:01;;;;;;;63.30;34.53;;;;;;;-5.14;100.00;102704.69;5270327;28;20024;-72
2022/12/17 23:29:33;;;;;;;65.83;35.07;;;;;;;-5.13;100.00;102716.63;5255167;28;20108;-72
2022/12/17 23:32:04;;;;;;;63.80;35.07;;;;;;;-4.93;100.00;102711.38;5254014;28;20049;-72
2022/12/17 23:34:36;;;;;;;60.63;33.27;;;;;;;-5.07;100.00;102715.97;5253820;28;20021;-72
2022/12/17 23:37:07;;;;;;;64.33;34.53;;;;;;;-4.96;100.00;102724.03;5254381;28;20033;-70
2022/12/17 23:39:38;;;;;;;58.40;32.43;;;;;;;-4.89;100.00;102726.00;5255088;28;20029;-73
2022/12/17 23:42:09;;;;;;;60.67;31.30;;;;;;;-4.89;100.00;102726.00;5256430;28;20124;-73
2022/12/17 23:44:41;;;;;;;59.77;31.87;;;;;;;-4.70;100.00;102726.63;5264218;28;20029;-73
2022/12/17 23:47:12;;;;;;;58.13;34.53;;;;;;;-4.74;100.00;102732.44;5254050;28;20056;-73
2022/12/17 23:49:43;;;;;;;56.97;33.70;;;;;;;-4.78;100.00;102728.06;5244096;28;20853;-73
2022/12/17 23:52:15;;;;;;;50.73;30.67;;;;;;;-4.54;100.00;102732.28;5259308;28;20032;-73
2022/12/17 23:54:46;;;;;;;59.37;33.37;;;;;;;-4.81;100.00;102733.03;5268002;28;20029;-73
2022/12/17 23:57:18;;;;;;;54.60;31.93;;;;;;;-4.94;100.00;102718.97;5270942;28;20070;-74
2022/12/17 23:59:49;;;;;;;59.60;34.00;;;;;;;-4.83;100.00;102734.72;5266825;28;20031;-72
